createdAt,value
2022-11-24T00:00:40.382Z,0.25
2022-11-24T00:01:43.650Z,0.00
2022-11-24T00:02:47.522Z,0.00
2022-11-24T00:03:56.153Z,0.00
2022-11-24T00:05:00.252Z,0.00
2022-11-24T00:06:04.261Z,0.00
2022-11-24T00:07:07.967Z,0.00
2022-11-24T00:08:11.650Z,0.00
2022-11-24T00:09:15.440Z,0.00
2022-11-24T00:10:18.931Z,0.00
2022-11-24T00:11:22.935Z,0.50
2022-11-24T00:12:26.759Z,0.50
2022-11-24T00:13:30.221Z,0.00
2022-11-24T00:14:34.074Z,0.00
2022-11-24T00:16:57.907Z,0.50
2022-11-24T00:18:11.482Z,0.00
2022-11-24T00:19:21.042Z,0.00
2022-11-24T00:20:31.863Z,0.00
2022-11-24T00:21:38.470Z,1.00
2022-11-24T00:22:48.525Z,0.50
2022-11-24T00:23:52.932Z,0.25
2022-11-24T00:25:00.299Z,0.00
2022-11-24T00:26:06.155Z,0.00
2022-11-24T00:27:16.724Z,0.00
2022-11-24T00:28:20.293Z,0.00
2022-11-24T00:29:25.111Z,0.00
2022-11-24T00:30:29.271Z,0.00
2022-11-24T00:31:33.053Z,0.00
2022-11-24T00:32:37.111Z,0.00
2022-11-24T00:33:40.507Z,0.00
2022-11-24T00:34:44.082Z,0.25
2022-11-24T00:35:47.685Z,0.50
2022-11-24T00:36:51.074Z,0.50
2022-11-24T00:37:54.664Z,0.00
2022-11-24T00:38:58.664Z,0.25
2022-11-24T00:40:05.841Z,0.00
2022-11-24T00:41:12.718Z,0.00
2022-11-24T00:42:18.244Z,0.50
2022-11-24T00:43:21.737Z,0.50
2022-11-24T00:44:25.227Z,0.50
2022-11-24T00:45:31.582Z,0.25
2022-11-24T00:46:37.624Z,0.00
2022-11-24T00:47:41.851Z,0.25
2022-11-24T00:48:45.318Z,0.00
2022-11-24T00:49:49.425Z,0.50
2022-11-24T00:50:52.619Z,1.50
2022-11-24T00:51:56.730Z,2.50
2022-11-24T00:53:00.203Z,1.25
2022-11-24T00:54:03.794Z,1.00
2022-11-24T00:55:07.611Z,0.00
2022-11-24T00:56:11.184Z,1.00
2022-11-24T00:57:15.080Z,2.00
2022-11-24T00:58:18.563Z,1.50
2022-11-24T00:59:21.952Z,2.50
2022-11-24T01:00:25.746Z,2.00
2022-11-24T01:01:29.304Z,1.00
2022-11-24T01:02:32.957Z,1.50
2022-11-24T01:03:36.937Z,2.50
2022-11-24T01:04:41.660Z,3.50
2022-11-24T01:05:45.144Z,3.00
2022-11-24T01:06:48.949Z,4.00
2022-11-24T01:07:52.603Z,2.75
2022-11-24T01:08:56.219Z,3.00
2022-11-24T01:10:00.630Z,4.25
2022-11-24T01:11:04.738Z,2.00
2022-11-24T01:12:08.742Z,2.50
2022-11-24T01:13:12.243Z,3.00
2022-11-24T01:14:16.120Z,3.00
2022-11-24T01:15:20.329Z,5.00
2022-11-24T01:16:24.075Z,3.50
2022-11-24T01:17:27.558Z,2.50
2022-11-24T01:18:31.312Z,2.50
2022-11-24T01:19:35.308Z,3.00
2022-11-24T01:20:39.128Z,3.50
2022-11-24T01:21:42.811Z,4.25
2022-11-24T01:22:46.391Z,3.00
2022-11-24T01:23:49.911Z,3.50
2022-11-24T01:24:53.883Z,4.50
2022-11-24T01:25:57.782Z,5.75
2022-11-24T01:27:01.274Z,6.00
2022-11-24T01:28:04.875Z,8.50
2022-11-24T01:29:08.246Z,8.50
2022-11-24T01:30:11.950Z,7.75
2022-11-24T01:31:16.450Z,10.00
2022-11-24T01:32:20.259Z,11.25
2022-11-24T01:33:24.047Z,10.50
2022-11-24T01:34:27.743Z,10.50
2022-11-24T01:36:47.422Z,6.50
2022-11-24T01:37:50.810Z,13.00
2022-11-24T01:38:56.466Z,4.00
2022-11-24T01:40:00.240Z,5.00
2022-11-24T01:41:03.864Z,4.00
2022-11-24T01:42:09.500Z,5.00
2022-11-24T01:43:12.969Z,6.50
2022-11-24T01:44:16.962Z,6.50
2022-11-24T01:45:20.962Z,6.25
2022-11-24T01:46:25.809Z,5.50
2022-11-24T01:47:29.694Z,5.50
2022-11-24T01:48:34.198Z,5.50
2022-11-24T01:49:37.385Z,4.25
2022-11-24T01:50:41.584Z,4.50
2022-11-24T01:51:45.383Z,5.00
2022-11-24T01:52:48.661Z,5.00
2022-11-24T01:53:51.945Z,4.25
2022-11-24T01:54:55.537Z,3.50
2022-11-24T01:55:59.131Z,4.00
2022-11-24T01:57:02.483Z,5.00
2022-11-24T01:58:05.897Z,3.50
2022-11-24T01:59:09.522Z,1.50
2022-11-24T02:00:12.475Z,2.75
2022-11-24T02:01:16.244Z,2.75
2022-11-24T02:02:19.878Z,2.00
2022-11-24T02:03:23.447Z,2.50
2022-11-24T02:04:27.039Z,3.00
2022-11-24T02:05:30.554Z,1.50
2022-11-24T02:06:41.160Z,2.50
2022-11-24T02:07:44.695Z,3.00
2022-11-24T02:08:48.172Z,4.00
2022-11-24T02:09:55.548Z,2.50
2022-11-24T02:10:59.168Z,3.50
2022-11-24T02:12:03.139Z,3.50
2022-11-24T02:13:06.808Z,3.00
2022-11-24T02:14:11.149Z,3.00
2022-11-24T02:15:15.647Z,2.50
2022-11-24T02:16:19.512Z,5.00
2022-11-24T02:17:23.203Z,5.50
2022-11-24T02:18:26.850Z,3.50
2022-11-24T02:19:30.489Z,6.00
2022-11-24T02:20:33.933Z,6.00
2022-11-24T02:21:37.608Z,5.00
2022-11-24T02:22:41.305Z,4.50
2022-11-24T02:23:45.401Z,4.00
2022-11-24T02:24:48.902Z,4.00
2022-11-24T02:25:52.611Z,2.50
2022-11-24T02:26:56.099Z,4.00
2022-11-24T02:27:59.581Z,3.00
2022-11-24T02:29:03.265Z,2.50
2022-11-24T02:30:06.572Z,2.50
2022-11-24T02:32:31.381Z,1.75
2022-11-24T02:33:34.633Z,5.50
2022-11-24T02:34:37.918Z,5.00
2022-11-24T02:35:41.606Z,4.00
2022-11-24T02:36:44.465Z,3.00
2022-11-24T02:37:48.169Z,3.00
2022-11-24T02:38:51.762Z,3.00
2022-11-24T02:39:55.267Z,2.50
2022-11-24T02:40:59.159Z,2.25
2022-11-24T02:42:02.544Z,4.00
2022-11-24T02:43:06.026Z,5.00
2022-11-24T02:44:09.621Z,3.75
2022-11-24T02:45:13.524Z,4.00
2022-11-24T02:46:17.557Z,4.00
2022-11-24T02:47:20.934Z,3.00
2022-11-24T02:48:24.604Z,3.25
2022-11-24T02:49:27.785Z,3.00
2022-11-24T02:50:31.485Z,2.00
2022-11-24T02:51:34.860Z,1.25
2022-11-24T02:52:38.464Z,1.00
2022-11-24T02:53:41.946Z,1.00
2022-11-24T02:54:45.735Z,2.50
2022-11-24T02:55:49.225Z,2.00
2022-11-24T02:56:53.232Z,2.50
2022-11-24T02:57:58.441Z,2.25
2022-11-24T02:59:04.919Z,2.50
2022-11-24T03:00:08.931Z,2.75
2022-11-24T03:01:12.358Z,3.00
2022-11-24T03:02:15.737Z,2.50
2022-11-24T03:03:19.700Z,2.25
2022-11-24T03:04:23.287Z,1.00
2022-11-24T03:05:27.302Z,1.75
2022-11-24T03:06:30.684Z,1.75
2022-11-24T03:07:35.473Z,2.00
2022-11-24T03:08:38.997Z,1.50
2022-11-24T03:09:42.882Z,1.00
2022-11-24T03:10:46.678Z,0.25
2022-11-24T03:11:50.163Z,1.00
2022-11-24T03:12:53.568Z,2.00
2022-11-24T03:13:56.944Z,2.50
2022-11-24T03:15:00.638Z,1.75
2022-11-24T03:16:03.958Z,3.00
2022-11-24T03:17:07.223Z,2.00
2022-11-24T03:18:10.705Z,1.75
2022-11-24T03:19:14.309Z,2.00
2022-11-24T03:20:17.567Z,2.00
2022-11-24T03:21:21.259Z,1.50
2022-11-24T03:22:27.845Z,1.00
2022-11-24T03:23:31.533Z,0.75
2022-11-24T03:24:35.066Z,1.75
2022-11-24T03:25:38.499Z,2.00
2022-11-24T03:26:42.492Z,0.50
2022-11-24T03:27:45.679Z,1.25
2022-11-24T03:28:49.062Z,1.25
2022-11-24T03:29:52.552Z,2.25
2022-11-24T03:30:56.904Z,1.00
2022-11-24T03:32:00.342Z,0.75
2022-11-24T03:33:04.353Z,0.00
2022-11-24T03:34:07.939Z,0.00
2022-11-24T03:35:11.527Z,0.00
2022-11-24T03:36:15.154Z,1.50
2022-11-24T03:37:18.613Z,1.00
2022-11-24T03:38:22.400Z,1.25
2022-11-24T03:39:26.421Z,1.00
2022-11-24T03:40:29.996Z,1.00
2022-11-24T03:41:33.791Z,1.00
2022-11-24T03:42:38.407Z,0.50
2022-11-24T03:43:44.102Z,3.25
2022-11-24T03:44:47.343Z,2.50
2022-11-24T03:45:50.729Z,1.00
2022-11-24T03:46:54.823Z,0.75
2022-11-24T03:47:59.139Z,1.00
2022-11-24T03:49:02.746Z,1.00
2022-11-24T03:50:06.129Z,1.50
2022-11-24T03:51:09.815Z,1.50
2022-11-24T03:52:13.913Z,1.00
2022-11-24T03:53:18.008Z,2.00
2022-11-24T03:54:21.505Z,0.50
2022-11-24T03:55:24.798Z,1.00
2022-11-24T03:56:28.372Z,1.50
2022-11-24T03:57:32.369Z,1.25
2022-11-24T03:58:35.861Z,0.75
2022-11-24T03:59:39.770Z,1.00
2022-11-24T04:00:42.946Z,2.00
2022-11-24T04:01:46.482Z,2.00
2022-11-24T04:02:49.775Z,0.00
2022-11-24T04:03:53.524Z,1.50
2022-11-24T04:04:56.901Z,2.50
2022-11-24T04:06:00.417Z,1.25
2022-11-24T04:07:03.686Z,0.25
2022-11-24T04:08:07.386Z,0.50
2022-11-24T04:09:10.652Z,1.50
2022-11-24T04:10:14.251Z,1.25
2022-11-24T04:11:17.832Z,1.50
2022-11-24T04:12:21.843Z,2.75
2022-11-24T04:13:25.212Z,2.00
2022-11-24T04:14:28.622Z,2.00
2022-11-24T04:15:32.323Z,2.00
2022-11-24T04:16:35.475Z,1.00
2022-11-24T04:17:38.662Z,1.00
2022-11-24T04:18:41.812Z,1.00
2022-11-24T04:19:44.993Z,0.00
2022-11-24T04:20:48.311Z,0.50
2022-11-24T04:21:51.559Z,0.50
2022-11-24T04:22:54.573Z,0.00
2022-11-24T04:23:57.683Z,1.00
2022-11-24T04:25:01.346Z,1.00
2022-11-24T04:26:04.534Z,0.75
2022-11-24T04:27:08.424Z,1.00
2022-11-24T04:28:17.577Z,1.50
2022-11-24T04:29:21.143Z,1.50
2022-11-24T04:30:24.552Z,2.00
2022-11-24T04:31:28.052Z,0.50
2022-11-24T04:32:31.626Z,0.50
2022-11-24T04:33:35.503Z,1.25
2022-11-24T04:34:39.508Z,0.50
2022-11-24T04:35:43.012Z,0.00
2022-11-24T04:36:46.459Z,0.00
2022-11-24T04:37:50.284Z,0.00
2022-11-24T04:39:23.633Z,0.50
2022-11-24T04:39:58.395Z,0.50
2022-11-24T04:41:01.470Z,2.00
2022-11-24T04:42:05.175Z,1.00
2022-11-24T04:43:09.412Z,1.00
2022-11-24T04:44:13.082Z,0.00
2022-11-24T04:45:17.066Z,0.50
2022-11-24T04:46:22.838Z,1.00
2022-11-24T04:47:26.300Z,0.75
2022-11-24T04:48:29.574Z,0.00
2022-11-24T04:49:32.958Z,0.50
2022-11-24T04:50:36.653Z,0.00
2022-11-24T04:51:39.842Z,0.00
2022-11-24T04:52:43.326Z,0.00
2022-11-24T04:53:46.610Z,0.00
2022-11-24T04:54:49.801Z,0.00
2022-11-24T04:55:53.182Z,0.00
2022-11-24T04:56:56.457Z,0.50
2022-11-24T04:58:00.361Z,1.00
2022-11-24T04:59:08.020Z,1.50
2022-11-24T05:00:08.286Z,2.00
2022-11-24T05:01:11.968Z,2.00
2022-11-24T05:02:15.443Z,1.50
2022-11-24T05:03:19.036Z,1.50
2022-11-24T05:04:22.590Z,1.50
2022-11-24T05:05:25.816Z,2.25
2022-11-24T05:06:28.862Z,1.50
2022-11-24T05:07:32.521Z,0.50
2022-11-24T05:08:35.762Z,1.00
2022-11-24T05:09:58.593Z,0.25
2022-11-24T05:10:43.567Z,0.75
2022-11-24T05:11:46.945Z,0.50
2022-11-24T05:12:51.397Z,1.00
2022-11-24T05:13:54.963Z,1.00
2022-11-24T05:14:58.057Z,0.50
2022-11-24T05:16:01.258Z,0.50
2022-11-24T05:17:04.461Z,0.50
2022-11-24T05:18:07.469Z,1.50
2022-11-24T05:19:10.661Z,2.00
2022-11-24T05:20:13.834Z,0.80
2022-11-24T05:21:17.025Z,0.75
2022-11-24T05:22:20.107Z,1.00
2022-11-24T05:23:23.244Z,1.00
2022-11-24T05:24:26.360Z,1.50
2022-11-24T05:25:29.645Z,1.50
2022-11-24T05:26:32.823Z,1.00
2022-11-24T05:27:35.901Z,1.00
2022-11-24T05:28:38.981Z,1.50
2022-11-24T05:29:42.035Z,2.00
2022-11-24T05:30:45.200Z,2.00
2022-11-24T05:31:48.500Z,2.00
2022-11-24T05:32:51.922Z,2.00
2022-11-24T05:33:55.200Z,0.50
2022-11-24T05:34:58.397Z,0.40
2022-11-24T05:36:01.571Z,0.75
2022-11-24T05:37:04.948Z,1.25
2022-11-24T05:38:08.232Z,1.00
2022-11-24T05:39:12.029Z,0.50
2022-11-24T05:40:15.647Z,0.50
2022-11-24T05:41:18.807Z,1.00
2022-11-24T05:42:22.618Z,2.00
2022-11-24T05:43:25.884Z,1.50
2022-11-24T05:44:35.419Z,1.50
2022-11-24T05:45:39.430Z,1.00
2022-11-24T05:46:42.642Z,1.50
2022-11-24T05:47:45.777Z,1.50
2022-11-24T05:48:49.170Z,0.50
2022-11-24T05:49:52.348Z,1.50
2022-11-24T05:50:55.651Z,0.50
2022-11-24T05:51:59.336Z,1.50
2022-11-24T05:53:02.650Z,2.00
2022-11-24T05:54:06.618Z,0.50
2022-11-24T05:55:10.212Z,1.25
2022-11-24T05:56:13.721Z,2.00
2022-11-24T05:57:16.886Z,2.00
2022-11-24T05:58:20.363Z,0.75
2022-11-24T05:59:23.443Z,1.00
2022-11-24T06:00:26.943Z,1.00
2022-11-24T06:01:30.161Z,1.00
2022-11-24T06:02:33.262Z,2.00
2022-11-24T06:03:36.889Z,1.75
2022-11-24T06:04:40.065Z,1.25
2022-11-24T06:05:43.371Z,1.00
2022-11-24T06:06:46.739Z,0.75
2022-11-24T06:07:50.799Z,1.50
2022-11-24T06:08:53.827Z,0.50
2022-11-24T06:09:57.116Z,0.50
2022-11-24T06:11:00.706Z,0.50
2022-11-24T06:12:04.489Z,0.50
2022-11-24T06:13:08.029Z,0.00
2022-11-24T06:14:11.736Z,2.00
2022-11-24T06:15:15.079Z,1.75
2022-11-24T06:16:18.302Z,0.00
2022-11-24T06:17:21.628Z,1.75
2022-11-24T06:18:24.912Z,2.00
2022-11-24T06:19:28.404Z,2.00
2022-11-24T06:20:32.882Z,1.50
2022-11-24T06:21:35.823Z,2.50
2022-11-24T06:22:39.478Z,3.00
2022-11-24T06:23:43.086Z,2.00
2022-11-24T06:24:46.678Z,0.50
2022-11-24T06:25:51.629Z,0.25
2022-11-24T06:26:55.794Z,1.00
2022-11-24T06:27:59.077Z,1.50
2022-11-24T06:29:02.573Z,0.75
2022-11-24T06:30:05.881Z,1.25
2022-11-24T06:31:09.684Z,0.50
2022-11-24T06:32:13.252Z,0.75
2022-11-24T06:33:16.950Z,1.75
2022-11-24T06:34:20.581Z,3.00
2022-11-24T06:35:23.713Z,2.50
2022-11-24T06:36:27.205Z,2.25
2022-11-24T06:37:30.586Z,1.50
2022-11-24T06:38:34.074Z,1.00
2022-11-24T06:39:37.966Z,1.00
2022-11-24T06:40:41.673Z,0.50
2022-11-24T06:41:45.139Z,1.00
2022-11-24T06:42:48.851Z,1.50
2022-11-24T06:43:52.347Z,2.00
2022-11-24T06:44:55.732Z,1.50
2022-11-24T06:45:59.486Z,1.40
2022-11-24T06:47:02.810Z,3.25
2022-11-24T06:48:06.137Z,1.25
2022-11-24T06:49:09.782Z,1.75
2022-11-24T06:50:13.787Z,1.50
2022-11-24T06:51:17.688Z,1.00
2022-11-24T06:52:21.475Z,0.50
2022-11-24T06:53:24.664Z,1.25
2022-11-24T06:54:28.456Z,4.40
2022-11-24T06:55:31.865Z,4.25
2022-11-24T06:56:34.903Z,3.50
2022-11-24T06:57:38.219Z,1.00
2022-11-24T06:58:41.494Z,1.00
2022-11-24T06:59:45.120Z,2.50
2022-11-24T07:00:48.254Z,1.50
2022-11-24T07:01:51.238Z,2.00
2022-11-24T07:02:54.863Z,2.50
2022-11-24T07:03:58.428Z,3.00
2022-11-24T07:05:01.723Z,3.50
2022-11-24T07:06:05.305Z,1.60
2022-11-24T07:07:09.454Z,0.50
2022-11-24T07:08:17.566Z,1.50
2022-11-24T07:09:17.753Z,1.00
2022-11-24T07:10:21.327Z,1.50
2022-11-24T07:11:25.131Z,1.50
2022-11-24T07:12:28.490Z,2.50
2022-11-24T07:13:31.768Z,1.25
2022-11-24T07:14:35.358Z,3.00
2022-11-24T07:15:39.366Z,4.00
2022-11-24T07:16:42.984Z,2.50
2022-11-24T07:17:46.151Z,1.50
2022-11-24T07:18:49.325Z,2.25
2022-11-24T07:19:52.810Z,1.75
2022-11-24T07:20:56.497Z,2.00
2022-11-24T07:21:59.686Z,2.00
2022-11-24T07:23:02.964Z,2.50
2022-11-24T07:24:06.454Z,3.00
2022-11-24T07:25:09.947Z,2.00
2022-11-24T07:26:13.743Z,1.50
2022-11-24T07:27:17.228Z,2.00
2022-11-24T07:28:20.614Z,3.00
2022-11-24T07:29:23.861Z,2.50
2022-11-24T07:30:27.429Z,1.50
2022-11-24T07:31:31.413Z,2.00
2022-11-24T07:32:34.977Z,2.00
2022-11-24T07:33:38.372Z,2.25
2022-11-24T07:34:41.672Z,3.50
2022-11-24T07:35:44.965Z,2.00
2022-11-24T07:36:48.126Z,1.00
2022-11-24T07:37:51.631Z,1.75
2022-11-24T07:38:54.683Z,2.75
2022-11-24T07:39:57.874Z,2.00
2022-11-24T07:41:00.955Z,2.75
2022-11-24T07:42:04.656Z,2.50
2022-11-24T07:43:07.822Z,2.50
2022-11-24T07:44:11.011Z,2.50
2022-11-24T07:45:14.609Z,1.00
2022-11-24T07:46:18.107Z,2.00
2022-11-24T07:47:21.589Z,1.75
2022-11-24T07:48:25.163Z,3.00
2022-11-24T07:49:28.753Z,4.00
2022-11-24T07:50:31.873Z,4.00
2022-11-24T07:51:35.331Z,3.00
2022-11-24T07:52:38.726Z,1.75
2022-11-24T07:53:42.132Z,2.50
2022-11-24T07:54:45.099Z,4.00
2022-11-24T07:55:48.974Z,5.25
2022-11-24T07:56:52.362Z,4.00
2022-11-24T07:57:55.646Z,1.50
2022-11-24T07:58:59.649Z,1.75
2022-11-24T08:00:02.831Z,2.50
2022-11-24T08:01:06.407Z,5.75
2022-11-24T08:02:09.735Z,5.50
2022-11-24T08:03:12.934Z,4.25
2022-11-24T08:04:16.272Z,3.25
2022-11-24T08:05:19.555Z,6.75
2022-11-24T08:06:26.197Z,4.50
2022-11-24T08:07:27.310Z,1.50
2022-11-24T08:08:30.447Z,5.00
2022-11-24T08:09:33.718Z,6.00
2022-11-24T08:10:37.211Z,3.50
2022-11-24T08:11:40.402Z,4.00
2022-11-24T08:12:44.144Z,2.50
2022-11-24T08:13:47.389Z,1.25
2022-11-24T08:14:50.751Z,2.00
2022-11-24T08:15:54.039Z,2.00
2022-11-24T08:16:57.373Z,1.75
2022-11-24T08:18:00.425Z,2.00
2022-11-24T08:19:03.697Z,2.00
2022-11-24T08:20:06.669Z,2.50
2022-11-24T08:21:10.556Z,4.50
2022-11-24T08:22:14.149Z,4.50
2022-11-24T08:23:17.459Z,1.75
2022-11-24T08:24:20.522Z,5.00
2022-11-24T08:25:24.010Z,4.00
2022-11-24T08:26:27.595Z,3.50
2022-11-24T08:27:30.778Z,3.50
2022-11-24T08:28:34.372Z,2.00
2022-11-24T08:29:37.958Z,1.50
2022-11-24T08:30:41.556Z,3.50
2022-11-24T08:31:44.902Z,4.50
2022-11-24T08:32:48.046Z,3.50
2022-11-24T08:33:51.100Z,2.50
2022-11-24T08:34:59.623Z,2.50
2022-11-24T08:35:59.407Z,3.50
2022-11-24T08:37:02.692Z,3.25
2022-11-24T08:38:06.389Z,3.75
2022-11-24T08:39:09.989Z,4.25
2022-11-24T08:40:13.276Z,4.00
2022-11-24T08:41:16.548Z,3.50
2022-11-24T08:42:20.032Z,3.50
2022-11-24T08:43:24.043Z,4.00
2022-11-24T08:44:27.323Z,5.00
2022-11-24T08:45:30.836Z,4.00
2022-11-24T08:46:34.205Z,3.25
2022-11-24T08:47:37.176Z,4.00
2022-11-24T08:48:40.453Z,3.50
2022-11-24T08:49:43.842Z,2.00
2022-11-24T08:50:47.743Z,2.00
2022-11-24T08:51:50.930Z,5.00
2022-11-24T08:52:54.314Z,5.60
2022-11-24T08:53:57.512Z,5.25
2022-11-24T08:55:00.887Z,3.50
2022-11-24T08:56:04.173Z,3.00
2022-11-24T08:57:07.855Z,4.00
2022-11-24T08:59:27.585Z,4.50
2022-11-24T09:00:30.822Z,3.00
2022-11-24T09:01:34.830Z,3.75
2022-11-24T09:02:38.408Z,4.25
2022-11-24T09:03:46.629Z,3.75
2022-11-24T09:04:46.851Z,3.50
2022-11-24T09:05:52.087Z,4.50
2022-11-24T09:06:55.251Z,4.00
2022-11-24T09:07:59.198Z,2.00
2022-11-24T09:09:02.420Z,3.25
2022-11-24T09:10:06.106Z,4.25
2022-11-24T09:11:09.906Z,4.00
2022-11-24T09:12:14.722Z,3.50
2022-11-24T09:13:17.907Z,5.00
2022-11-24T09:14:21.304Z,4.80
2022-11-24T09:15:24.783Z,4.00
2022-11-24T09:16:28.140Z,3.75
2022-11-24T09:17:31.562Z,3.75
2022-11-24T09:18:34.856Z,3.50
2022-11-24T09:19:38.023Z,3.00
2022-11-24T09:20:41.407Z,2.50
2022-11-24T09:21:44.716Z,2.00
2022-11-24T09:22:48.388Z,2.50
2022-11-24T09:23:51.771Z,3.50
2022-11-24T09:24:55.269Z,4.00
2022-11-24T09:25:58.448Z,5.00
2022-11-24T09:27:02.549Z,6.00
2022-11-24T09:28:06.044Z,4.50
2022-11-24T09:29:09.321Z,3.25
2022-11-24T09:30:12.537Z,3.50
2022-11-24T09:31:16.054Z,4.00
2022-11-24T09:32:19.172Z,4.00
2022-11-24T09:33:22.454Z,4.75
2022-11-24T09:34:25.746Z,4.75
2022-11-24T09:35:28.924Z,3.00
2022-11-24T09:36:32.516Z,2.00
2022-11-24T09:37:36.026Z,3.00
2022-11-24T09:38:39.710Z,3.00
2022-11-24T09:39:43.597Z,3.25
2022-11-24T09:40:46.886Z,4.00
2022-11-24T09:41:50.487Z,4.00
2022-11-24T09:42:53.973Z,5.00
2022-11-24T09:43:57.251Z,4.50
2022-11-24T09:45:00.747Z,4.00
2022-11-24T09:46:05.821Z,3.00
2022-11-24T09:47:08.459Z,3.50
2022-11-24T09:48:11.512Z,3.50
2022-11-24T09:49:14.996Z,4.00
2022-11-24T09:50:18.811Z,2.50
2022-11-24T09:51:22.182Z,4.00
2022-11-24T09:52:25.464Z,4.50
2022-11-24T09:53:28.963Z,6.00
2022-11-24T09:54:32.251Z,4.50
2022-11-24T09:55:35.566Z,4.00
2022-11-24T09:56:39.115Z,4.00
2022-11-24T09:57:42.613Z,4.00
2022-11-24T09:58:45.912Z,4.25
2022-11-24T09:59:49.074Z,4.50
2022-11-24T10:00:52.044Z,4.50
2022-11-24T10:01:55.755Z,4.75
2022-11-24T10:02:59.143Z,2.50
2022-11-24T10:04:06.226Z,3.00
2022-11-24T10:05:07.236Z,4.50
2022-11-24T10:06:10.626Z,6.00
2022-11-24T10:07:13.934Z,5.50
2022-11-24T10:08:17.406Z,3.50
2022-11-24T10:09:20.787Z,2.50
2022-11-24T10:10:25.207Z,3.50
2022-11-24T10:11:29.510Z,6.50
2022-11-24T10:12:36.406Z,6.25
2022-11-24T10:13:40.076Z,5.00
2022-11-24T10:14:43.664Z,3.50
2022-11-24T10:15:47.385Z,3.00
2022-11-24T10:16:51.447Z,2.50
2022-11-24T10:17:55.346Z,2.75
2022-11-24T10:18:58.647Z,3.00
2022-11-24T10:20:02.132Z,4.50
2022-11-24T10:21:05.923Z,3.50
2022-11-24T10:22:09.103Z,3.00
2022-11-24T10:23:12.693Z,3.50
2022-11-24T10:24:16.493Z,3.50
2022-11-24T10:25:20.381Z,3.00
2022-11-24T10:26:23.980Z,2.00
2022-11-24T10:27:27.167Z,2.00
2022-11-24T10:28:30.542Z,3.00
2022-11-24T10:29:34.472Z,4.75
2022-11-24T10:30:37.897Z,3.50
2022-11-24T10:31:41.837Z,4.00
2022-11-24T10:32:45.527Z,4.50
2022-11-24T10:33:48.914Z,4.50
2022-11-24T10:34:52.504Z,3.50
2022-11-24T10:35:55.689Z,4.75
2022-11-24T10:36:59.375Z,5.50
2022-11-24T10:38:02.670Z,3.50
2022-11-24T10:39:06.149Z,2.00
2022-11-24T10:40:17.198Z,2.50
2022-11-24T10:41:14.360Z,3.00
2022-11-24T10:42:17.744Z,3.50
2022-11-24T10:43:21.234Z,3.75
2022-11-24T10:44:24.386Z,4.75
2022-11-24T10:45:27.614Z,4.25
2022-11-24T10:46:36.281Z,3.00
2022-11-24T10:47:36.523Z,4.50
2022-11-24T10:48:40.007Z,4.75
2022-11-24T10:49:43.211Z,4.25
2022-11-24T10:50:46.788Z,3.00
2022-11-24T10:51:49.860Z,4.00
2022-11-24T10:52:53.490Z,4.50
2022-11-24T10:53:57.397Z,4.00
2022-11-24T10:55:00.943Z,2.00
2022-11-24T10:56:04.130Z,3.50
2022-11-24T10:57:07.303Z,3.75
2022-11-24T10:58:10.894Z,4.00
2022-11-24T10:59:14.604Z,2.75
2022-11-24T11:00:17.570Z,4.00
2022-11-24T11:01:21.000Z,3.50
2022-11-24T11:02:24.520Z,4.00
2022-11-24T11:03:27.738Z,5.50
2022-11-24T11:04:31.218Z,4.00
2022-11-24T11:05:34.532Z,3.00
2022-11-24T11:06:37.799Z,3.50
2022-11-24T11:07:41.660Z,3.50
2022-11-24T11:08:44.903Z,3.00
2022-11-24T11:09:48.259Z,3.25
2022-11-24T11:10:51.454Z,4.00
2022-11-24T11:11:55.539Z,5.25
2022-11-24T11:12:58.624Z,5.00
2022-11-24T11:14:04.244Z,5.00
2022-11-24T11:15:06.125Z,3.50
2022-11-24T11:16:09.436Z,4.00
2022-11-24T11:17:13.089Z,4.75
2022-11-24T11:18:16.688Z,3.00
2022-11-24T11:19:47.261Z,3.75
2022-11-24T11:20:25.091Z,5.50
2022-11-24T11:21:28.384Z,4.75
2022-11-24T11:22:31.970Z,4.50
2022-11-24T11:23:35.971Z,4.00
2022-11-24T11:24:40.011Z,4.00
2022-11-24T11:25:43.791Z,4.00
2022-11-24T11:26:47.259Z,2.00
2022-11-24T11:27:50.651Z,1.00
2022-11-24T11:28:54.019Z,2.50
2022-11-24T11:31:19.069Z,4.50
2022-11-24T11:34:23.245Z,4.25
2022-11-24T11:35:19.578Z,2.50
2022-11-24T11:36:22.959Z,2.00
2022-11-24T11:37:26.659Z,2.00
2022-11-24T11:38:29.758Z,1.75
2022-11-24T11:39:32.955Z,2.20
2022-11-24T11:40:35.896Z,3.50
2022-11-24T11:41:39.449Z,6.75
2022-11-24T11:43:47.376Z,3.00
2022-11-24T11:44:50.569Z,4.00
2022-11-24T11:45:54.045Z,5.00
2022-11-24T11:46:57.587Z,2.25
2022-11-24T11:48:01.029Z,1.00
2022-11-24T11:49:04.112Z,2.50
2022-11-24T11:50:07.186Z,5.25
2022-11-24T11:51:25.590Z,4.25
2022-11-24T11:52:14.843Z,3.00
2022-11-24T11:53:18.067Z,2.75
2022-11-24T11:54:21.160Z,3.00
2022-11-24T11:55:24.533Z,2.50
2022-11-24T11:56:27.925Z,1.50
2022-11-24T11:57:31.411Z,2.00
2022-11-24T11:58:34.492Z,2.50
2022-11-24T11:59:37.767Z,3.50
2022-11-24T12:00:41.156Z,4.00
2022-11-24T12:01:44.343Z,4.25
2022-11-24T12:02:53.174Z,4.50
2022-11-24T12:03:52.235Z,4.50
2022-11-24T12:04:55.316Z,4.00
2022-11-24T12:05:58.301Z,3.50
2022-11-24T12:07:01.575Z,3.50
2022-11-24T12:08:09.597Z,2.50
2022-11-24T12:09:24.235Z,3.00
2022-11-24T12:10:13.790Z,3.50
2022-11-24T12:11:17.282Z,3.00
2022-11-24T12:12:20.667Z,4.00
2022-11-24T12:13:23.866Z,5.00
2022-11-24T12:14:26.922Z,4.00
2022-11-24T12:15:30.008Z,4.50
2022-11-24T12:16:33.420Z,3.00
2022-11-24T12:17:36.579Z,4.00
2022-11-24T12:19:43.969Z,3.00
2022-11-24T12:20:47.354Z,5.50
2022-11-24T12:21:50.628Z,5.40
2022-11-24T12:24:09.917Z,4.00
2022-11-24T12:25:13.183Z,5.50
2022-11-24T12:26:16.264Z,6.50
2022-11-24T12:27:22.862Z,6.00
2022-11-24T12:28:23.643Z,3.00
2022-11-24T12:29:27.062Z,4.50
2022-11-24T12:30:30.026Z,5.00
2022-11-24T12:31:33.144Z,4.00
2022-11-24T12:32:36.274Z,5.00
2022-11-24T12:33:39.246Z,4.00
2022-11-24T12:34:42.533Z,3.00
2022-11-24T12:35:45.722Z,4.50
2022-11-24T12:36:48.898Z,4.75
2022-11-24T12:37:51.978Z,3.50
2022-11-24T12:38:55.053Z,4.00
2022-11-24T12:39:58.147Z,4.50
2022-11-24T12:42:05.324Z,4.50
2022-11-24T12:43:08.506Z,4.00
2022-11-24T12:44:11.685Z,3.75
2022-11-24T12:45:14.925Z,2.50
2022-11-24T12:46:17.931Z,4.00
2022-11-24T12:47:20.933Z,5.00
2022-11-24T12:48:23.899Z,3.50
2022-11-24T12:49:26.974Z,4.75
2022-11-24T12:50:30.165Z,3.50
2022-11-24T12:51:33.345Z,2.75
2022-11-24T12:52:36.341Z,3.50
2022-11-24T12:53:39.405Z,5.50
2022-11-24T12:54:42.486Z,3.00
2022-11-24T12:55:45.732Z,3.75
2022-11-24T12:56:48.635Z,4.50
2022-11-24T12:57:51.724Z,5.00
2022-11-24T12:58:55.104Z,4.00
2022-11-24T12:59:58.488Z,4.50
2022-11-24T13:01:01.906Z,3.50
2022-11-24T13:02:05.178Z,5.00
2022-11-24T13:03:08.359Z,3.40
2022-11-24T13:04:11.421Z,2.75
2022-11-24T13:05:14.502Z,3.50
2022-11-24T13:06:17.808Z,5.50
2022-11-24T13:07:21.012Z,4.25
2022-11-24T13:08:24.046Z,2.50
2022-11-24T13:09:27.227Z,3.00
2022-11-24T13:11:34.409Z,3.00
2022-11-24T13:12:37.489Z,2.00
2022-11-24T13:13:41.077Z,3.50
2022-11-24T13:14:44.154Z,6.75
2022-11-24T13:15:50.536Z,5.00
2022-11-24T13:17:13.508Z,3.75
2022-11-24T13:18:08.636Z,3.50
2022-11-24T13:18:59.978Z,3.50
2022-11-24T13:20:02.953Z,3.75
2022-11-24T13:21:05.922Z,4.50
2022-11-24T13:22:09.128Z,4.00
2022-11-24T13:23:14.954Z,5.00
2022-11-24T13:25:18.746Z,2.50
2022-11-24T13:26:22.780Z,1.50
2022-11-24T13:27:26.044Z,2.00
2022-11-24T13:28:53.912Z,2.00
2022-11-24T13:29:33.298Z,4.00
2022-11-24T13:30:36.271Z,5.00
2022-11-24T13:31:39.533Z,5.50
2022-11-24T13:32:42.653Z,3.75
2022-11-24T13:33:45.634Z,2.00
2022-11-24T13:34:48.716Z,3.00
2022-11-24T13:35:51.808Z,5.00
2022-11-24T13:36:54.875Z,5.25
2022-11-24T13:37:57.956Z,3.75
2022-11-24T13:39:01.040Z,6.00
2022-11-24T13:40:04.115Z,6.25
2022-11-24T13:41:27.634Z,3.50
2022-11-24T13:42:41.688Z,3.00
2022-11-24T13:43:15.724Z,3.50
2022-11-24T13:44:18.666Z,5.50
2022-11-24T13:45:21.664Z,4.25
2022-11-24T13:46:24.624Z,4.75
2022-11-24T13:47:27.724Z,6.00
2022-11-24T13:48:30.906Z,5.75
2022-11-24T13:49:33.977Z,5.75
2022-11-24T13:50:36.953Z,5.00
2022-11-24T13:51:40.351Z,3.50
2022-11-24T13:52:43.630Z,4.50
2022-11-24T13:53:46.707Z,4.50
2022-11-24T13:54:49.989Z,5.00
2022-11-24T13:55:53.068Z,6.00
2022-11-24T13:56:56.360Z,5.00
2022-11-24T13:58:00.253Z,6.50
2022-11-24T13:59:03.239Z,6.00
2022-11-24T14:00:06.204Z,4.50
2022-11-24T14:01:09.187Z,5.00
2022-11-24T14:02:12.462Z,6.00
2022-11-24T14:03:15.716Z,6.50
2022-11-24T14:04:34.021Z,5.50
2022-11-24T14:05:23.468Z,5.50
2022-11-24T14:06:26.431Z,4.75
2022-11-24T14:07:29.741Z,6.00
2022-11-24T14:08:32.982Z,4.50
2022-11-24T14:09:35.969Z,4.50
2022-11-24T14:10:39.146Z,5.75
2022-11-24T14:11:42.145Z,4.75
2022-11-24T14:12:45.411Z,4.25
2022-11-24T14:13:48.486Z,3.50
2022-11-24T14:14:51.467Z,4.50
2022-11-24T14:15:54.811Z,4.00
2022-11-24T14:16:57.833Z,2.50
2022-11-24T14:18:00.803Z,4.50
2022-11-24T14:19:03.890Z,4.00
2022-11-24T14:20:06.869Z,4.50
2022-11-24T14:21:09.944Z,5.00
2022-11-24T14:22:13.309Z,4.75